sensor_id;sensor_type;location;lat;lon;timestamp;pressure;altitude;pressure_sealevel;temperature;humidity
72063;BME280;59929;43.546;-5.702;2022-08-19T00:00:44;102300.47;;;18.05;65.40
72063;BME280;59929;43.546;-5.702;2022-08-19T00:03:09;102295.78;;;18.05;65.65
72063;BME280;59929;43.546;-5.702;2022-08-19T00:05:35;102292.63;;;17.97;65.20
72063;BME280;59929;43.546;-5.702;2022-08-19T00:08:01;102287.94;;;17.97;65.19
72063;BME280;59929;43.546;-5.702;2022-08-19T00:10:26;102292.88;;;17.95;65.18
72063;BME280;59929;43.546;-5.702;2022-08-19T00:12:52;102292.50;;;18.08;64.67
72063;BME280;59929;43.546;-5.702;2022-08-19T00:15:21;102290.28;;;18.05;64.86
72063;BME280;59929;43.546;-5.702;2022-08-19T00:17:47;102284.25;;;18.08;64.85
72063;BME280;59929;43.546;-5.702;2022-08-19T00:20:16;102284.97;;;17.99;65.10
72063;BME280;59929;43.546;-5.702;2022-08-19T00:22:44;102286.56;;;17.95;65.26
72063;BME280;59929;43.546;-5.702;2022-08-19T00:25:10;102294.81;;;17.95;65.45
72063;BME280;59929;43.546;-5.702;2022-08-19T00:27:36;102293.41;;;17.92;65.69
72063;BME280;59929;43.546;-5.702;2022-08-19T00:30:04;102296.31;;;17.85;65.39
72063;BME280;59929;43.546;-5.702;2022-08-19T00:32:30;102295.84;;;17.88;65.40
72063;BME280;59929;43.546;-5.702;2022-08-19T00:34:56;102298.19;;;17.80;65.44
72063;BME280;59929;43.546;-5.702;2022-08-19T00:37:23;102295.19;;;17.65;66.17
72063;BME280;59929;43.546;-5.702;2022-08-19T00:39:50;102294.69;;;17.68;66.05
72063;BME280;59929;43.546;-5.702;2022-08-19T00:42:17;102297.63;;;17.61;66.32
72063;BME280;59929;43.546;-5.702;2022-08-19T00:44:43;102294.34;;;17.64;66.65
72063;BME280;59929;43.546;-5.702;2022-08-19T00:47:09;102295.59;;;17.73;66.09
72063;BME280;59929;43.546;-5.702;2022-08-19T00:49:40;102288.69;;;17.71;66.43
72063;BME280;59929;43.546;-5.702;2022-08-19T00:52:15;102286.00;;;17.76;66.25
72063;BME280;59929;43.546;-5.702;2022-08-19T00:54:43;102276.50;;;17.67;66.33
72063;BME280;59929;43.546;-5.702;2022-08-19T00:57:12;102281.19;;;17.66;66.44
72063;BME280;59929;43.546;-5.702;2022-08-19T00:59:40;102280.41;;;17.71;66.13
72063;BME280;59929;43.546;-5.702;2022-08-19T01:02:07;102271.00;;;17.67;66.72
72063;BME280;59929;43.546;-5.702;2022-08-19T01:04:33;102271.25;;;17.82;65.88
72063;BME280;59929;43.546;-5.702;2022-08-19T01:06:59;102268.16;;;17.78;66.53
72063;BME280;59929;43.546;-5.702;2022-08-19T01:09:25;102242.00;;;17.76;66.27
72063;BME280;59929;43.546;-5.702;2022-08-19T01:11:51;102266.31;;;18.06;65.64
72063;BME280;59929;43.546;-5.702;2022-08-19T01:14:17;102265.34;;;17.95;66.25
72063;BME280;59929;43.546;-5.702;2022-08-19T01:16:45;102258.41;;;18.09;65.63
72063;BME280;59929;43.546;-5.702;2022-08-19T01:19:27;102255.25;;;18.01;65.97
72063;BME280;59929;43.546;-5.702;2022-08-19T01:22:00;102251.84;;;17.94;65.98
72063;BME280;59929;43.546;-5.702;2022-08-19T01:24:27;102253.31;;;17.79;66.77
72063;BME280;59929;43.546;-5.702;2022-08-19T01:26:53;102250.31;;;17.81;66.65
72063;BME280;59929;43.546;-5.702;2022-08-19T01:29:20;102251.75;;;17.67;67.00
72063;BME280;59929;43.546;-5.702;2022-08-19T01:31:45;102246.25;;;17.67;67.38
72063;BME280;59929;43.546;-5.702;2022-08-19T01:34:11;102249.53;;;17.64;67.09
72063;BME280;59929;43.546;-5.702;2022-08-19T01:36:41;102242.34;;;17.63;67.41
72063;BME280;59929;43.546;-5.702;2022-08-19T01:39:12;102239.88;;;17.61;67.58
72063;BME280;59929;43.546;-5.702;2022-08-19T01:41:38;102241.00;;;17.49;67.83
72063;BME280;59929;43.546;-5.702;2022-08-19T01:44:05;102238.44;;;17.42;68.10
72063;BME280;59929;43.546;-5.702;2022-08-19T01:46:31;102235.94;;;17.41;68.45
72063;BME280;59929;43.546;-5.702;2022-08-19T01:48:57;102235.09;;;17.40;68.55
72063;BME280;59929;43.546;-5.702;2022-08-19T01:51:24;102229.19;;;17.32;69.16
72063;BME280;59929;43.546;-5.702;2022-08-19T01:53:50;102227.53;;;17.31;68.94
72063;BME280;59929;43.546;-5.702;2022-08-19T01:56:17;102222.03;;;17.31;69.25
72063;BME280;59929;43.546;-5.702;2022-08-19T01:58:48;102213.59;;;17.54;68.13
72063;BME280;59929;43.546;-5.702;2022-08-19T02:01:16;102224.84;;;17.36;68.75
72063;BME280;59929;43.546;-5.702;2022-08-19T02:03:42;102216.88;;;17.34;69.38
72063;BME280;59929;43.546;-5.702;2022-08-19T02:06:08;102218.13;;;17.43;68.77
72063;BME280;59929;43.546;-5.702;2022-08-19T02:08:36;102213.94;;;17.41;68.99
72063;BME280;59929;43.546;-5.702;2022-08-19T02:11:04;102216.44;;;17.42;68.99
72063;BME280;59929;43.546;-5.702;2022-08-19T02:13:31;102217.53;;;17.41;68.78
72063;BME280;59929;43.546;-5.702;2022-08-19T02:15:56;102204.69;;;17.47;68.65
72063;BME280;59929;43.546;-5.702;2022-08-19T02:18:23;102211.03;;;17.47;68.79
72063;BME280;59929;43.546;-5.702;2022-08-19T02:20:49;102206.19;;;17.38;68.55
72063;BME280;59929;43.546;-5.702;2022-08-19T02:23:16;102212.63;;;17.27;69.60
72063;BME280;59929;43.546;-5.702;2022-08-19T02:25:46;102215.88;;;17.24;69.63
72063;BME280;59929;43.546;-5.702;2022-08-19T02:28:12;102217.19;;;17.21;69.46
72063;BME280;59929;43.546;-5.702;2022-08-19T02:30:39;102220.22;;;17.20;69.66
72063;BME280;59929;43.546;-5.702;2022-08-19T02:33:06;102215.97;;;17.29;69.50
72063;BME280;59929;43.546;-5.702;2022-08-19T02:35:31;102206.06;;;17.11;70.12
72063;BME280;59929;43.546;-5.702;2022-08-19T02:37:57;102214.72;;;17.03;70.28
72063;BME280;59929;43.546;-5.702;2022-08-19T02:40:47;102212.81;;;17.03;70.06
72063;BME280;59929;43.546;-5.702;2022-08-19T02:43:15;102208.97;;;17.04;70.17
72063;BME280;59929;43.546;-5.702;2022-08-19T02:45:40;102213.88;;;17.02;70.22
72063;BME280;59929;43.546;-5.702;2022-08-19T02:48:06;102220.47;;;17.01;70.66
72063;BME280;59929;43.546;-5.702;2022-08-19T02:50:37;102217.72;;;17.01;70.54
72063;BME280;59929;43.546;-5.702;2022-08-19T02:53:04;102219.94;;;17.04;70.35
72063;BME280;59929;43.546;-5.702;2022-08-19T02:55:29;102216.88;;;17.01;70.79
72063;BME280;59929;43.546;-5.702;2022-08-19T02:57:55;102206.63;;;16.96;70.51
72063;BME280;59929;43.546;-5.702;2022-08-19T03:00:22;102214.28;;;17.11;70.63
72063;BME280;59929;43.546;-5.702;2022-08-19T03:02:49;102213.81;;;17.14;70.68
72063;BME280;59929;43.546;-5.702;2022-08-19T03:05:15;102215.19;;;17.17;70.29
72063;BME280;59929;43.546;-5.702;2022-08-19T03:07:41;102216.03;;;17.17;70.26
72063;BME280;59929;43.546;-5.702;2022-08-19T03:10:07;102215.28;;;17.22;70.07
72063;BME280;59929;43.546;-5.702;2022-08-19T03:12:37;102215.81;;;17.19;70.02
72063;BME280;59929;43.546;-5.702;2022-08-19T03:15:06;102217.56;;;17.25;70.00
72063;BME280;59929;43.546;-5.702;2022-08-19T03:17:33;102214.97;;;17.18;69.95
72063;BME280;59929;43.546;-5.702;2022-08-19T03:19:59;102212.56;;;17.05;70.84
72063;BME280;59929;43.546;-5.702;2022-08-19T03:22:25;102206.00;;;17.06;71.15
72063;BME280;59929;43.546;-5.702;2022-08-19T03:24:51;102207.56;;;17.19;70.43
72063;BME280;59929;43.546;-5.702;2022-08-19T03:27:16;102215.38;;;17.27;70.32
72063;BME280;59929;43.546;-5.702;2022-08-19T03:29:43;102199.38;;;17.24;70.29
72063;BME280;59929;43.546;-5.702;2022-08-19T03:32:09;102205.03;;;17.17;70.39
72063;BME280;59929;43.546;-5.702;2022-08-19T03:34:37;102205.63;;;17.19;70.04
72063;BME280;59929;43.546;-5.702;2022-08-19T03:37:07;102202.56;;;17.16;70.63
72063;BME280;59929;43.546;-5.702;2022-08-19T03:39:33;102202.88;;;17.19;70.15
72063;BME280;59929;43.546;-5.702;2022-08-19T03:42:01;102206.31;;;17.26;69.89
72063;BME280;59929;43.546;-5.702;2022-08-19T03:44:28;102209.94;;;17.32;69.96
72063;BME280;59929;43.546;-5.702;2022-08-19T03:46:56;102208.53;;;17.29;70.35
72063;BME280;59929;43.546;-5.702;2022-08-19T03:49:25;102209.31;;;17.25;70.19
72063;BME280;59929;43.546;-5.702;2022-08-19T03:51:53;102202.72;;;17.09;70.80
72063;BME280;59929;43.546;-5.702;2022-08-19T03:54:20;102204.56;;;17.03;71.00
72063;BME280;59929;43.546;-5.702;2022-08-19T03:56:50;102207.97;;;16.94;71.69
72063;BME280;59929;43.546;-5.702;2022-08-19T03:59:22;102208.16;;;16.87;71.58
72063;BME280;59929;43.546;-5.702;2022-08-19T04:01:51;102215.22;;;16.83;71.67
72063;BME280;59929;43.546;-5.702;2022-08-19T04:04:16;102220.34;;;16.80;72.06
72063;BME280;59929;43.546;-5.702;2022-08-19T04:06:43;102222.38;;;16.84;72.08
72063;BME280;59929;43.546;-5.702;2022-08-19T04:09:10;102221.72;;;16.77;72.38
72063;BME280;59929;43.546;-5.702;2022-08-19T04:11:40;102220.34;;;16.80;72.64
72063;BME280;59929;43.546;-5.702;2022-08-19T04:14:08;102212.69;;;16.82;72.37
72063;BME280;59929;43.546;-5.702;2022-08-19T04:16:35;102213.78;;;16.81;72.55
72063;BME280;59929;43.546;-5.702;2022-08-19T04:19:02;102210.22;;;16.80;72.71
72063;BME280;59929;43.546;-5.702;2022-08-19T04:21:28;102208.88;;;16.83;72.62
72063;BME280;59929;43.546;-5.702;2022-08-19T04:23:55;102211.03;;;16.64;73.23
72063;BME280;59929;43.546;-5.702;2022-08-19T04:26:25;102211.03;;;16.64;73.46
72063;BME280;59929;43.546;-5.702;2022-08-19T04:28:52;102211.81;;;16.48;73.71
72063;BME280;59929;43.546;-5.702;2022-08-19T04:31:22;102208.47;;;16.46;73.83
72063;BME280;59929;43.546;-5.702;2022-08-19T04:33:53;102194.34;;;16.26;73.96
72063;BME280;59929;43.546;-5.702;2022-08-19T04:36:25;102209.28;;;16.47;73.86
72063;BME280;59929;43.546;-5.702;2022-08-19T04:38:54;102203.56;;;16.48;74.00
72063;BME280;59929;43.546;-5.702;2022-08-19T04:41:20;102207.53;;;16.41;nan
72063;BME280;59929;43.546;-5.702;2022-08-19T04:44:02;102207.78;;;16.39;74.09
72063;BME280;59929;43.546;-5.702;2022-08-19T04:46:28;102202.63;;;16.43;nan
72063;BME280;59929;43.546;-5.702;2022-08-19T04:48:56;102206.94;;;16.39;74.26
72063;BME280;59929;43.546;-5.702;2022-08-19T04:51:22;102195.63;;;16.35;74.62
72063;BME280;59929;43.546;-5.702;2022-08-19T04:53:48;102197.97;;;16.43;74.35
72063;BME280;59929;43.546;-5.702;2022-08-19T04:56:16;102198.88;;;16.32;74.68
72063;BME280;59929;43.546;-5.702;2022-08-19T04:58:43;102194.44;;;16.31;74.58
72063;BME280;59929;43.546;-5.702;2022-08-19T05:01:14;102198.38;;;16.35;74.55
72063;BME280;59929;43.546;-5.702;2022-08-19T05:03:40;102208.75;;;16.33;74.42
72063;BME280;59929;43.546;-5.702;2022-08-19T05:06:07;102196.13;;;16.32;74.49
72063;BME280;59929;43.546;-5.702;2022-08-19T05:08:35;102205.31;;;16.26;74.99
72063;BME280;59929;43.546;-5.702;2022-08-19T05:11:11;102204.09;;;16.34;74.33
72063;BME280;59929;43.546;-5.702;2022-08-19T05:13:37;102206.34;;;16.37;74.39
72063;BME280;59929;43.546;-5.702;2022-08-19T05:16:03;102202.69;;;16.31;74.26
72063;BME280;59929;43.546;-5.702;2022-08-19T05:18:29;102195.63;;;16.35;74.61
72063;BME280;59929;43.546;-5.702;2022-08-19T05:21:08;102188.84;;;16.26;74.26
72063;BME280;59929;43.546;-5.702;2022-08-19T05:23:45;102199.94;;;16.31;74.51
72063;BME280;59929;43.546;-5.702;2022-08-19T05:26:11;102201.69;;;16.37;74.50
72063;BME280;59929;43.546;-5.702;2022-08-19T05:28:36;102201.13;;;16.35;74.36
72063;BME280;59929;43.546;-5.702;2022-08-19T05:31:02;102206.28;;;16.32;74.66
72063;BME280;59929;43.546;-5.702;2022-08-19T05:33:28;102206.59;;;16.35;74.64
72063;BME280;59929;43.546;-5.702;2022-08-19T05:35:53;102211.03;;;16.36;74.39
72063;BME280;59929;43.546;-5.702;2022-08-19T05:38:19;102217.09;;;16.38;74.12
72063;BME280;59929;43.546;-5.702;2022-08-19T05:40:45;102217.09;;;16.38;74.03
72063;BME280;59929;43.546;-5.702;2022-08-19T05:43:12;102217.28;;;16.48;73.70
72063;BME280;59929;43.546;-5.702;2022-08-19T05:45:41;102221.25;;;16.52;73.58
72063;BME280;59929;43.546;-5.702;2022-08-19T05:48:09;102225.91;;;16.52;73.61
72063;BME280;59929;43.546;-5.702;2022-08-19T05:50:37;102221.81;;;16.54;73.34
72063;BME280;59929;43.546;-5.702;2022-08-19T05:53:04;102227.78;;;16.51;73.58
72063;BME280;59929;43.546;-5.702;2022-08-19T05:55:31;102227.50;;;16.64;73.33
72063;BME280;59929;43.546;-5.702;2022-08-19T05:57:57;102220.84;;;16.60;73.04
72063;BME280;59929;43.546;-5.702;2022-08-19T06:00:22;102220.84;;;16.60;72.90
72063;BME280;59929;43.546;-5.702;2022-08-19T06:02:48;102240.00;;;16.72;72.78
72063;BME280;59929;43.546;-5.702;2022-08-19T06:05:16;102238.25;;;16.82;72.23
72063;BME280;59929;43.546;-5.702;2022-08-19T06:07:42;102243.03;;;16.87;72.26
72063;BME280;59929;43.546;-5.702;2022-08-19T06:10:09;102245.44;;;16.83;72.48
72063;BME280;59929;43.546;-5.702;2022-08-19T06:12:36;102246.50;;;16.82;71.97
72063;BME280;59929;43.546;-5.702;2022-08-19T06:15:07;102248.25;;;16.88;71.84
72063;BME280;59929;43.546;-5.702;2022-08-19T06:17:34;102247.19;;;16.89;71.76
72063;BME280;59929;43.546;-5.702;2022-08-19T06:20:01;102255.09;;;17.02;71.33
72063;BME280;59929;43.546;-5.702;2022-08-19T06:22:27;102255.28;;;16.96;71.66
72063;BME280;59929;43.546;-5.702;2022-08-19T06:24:54;102247.38;;;16.99;71.29
72063;BME280;59929;43.546;-5.702;2022-08-19T06:27:20;102242.19;;;17.03;71.02
72063;BME280;59929;43.546;-5.702;2022-08-19T06:29:46;102239.19;;;17.04;70.97
72063;BME280;59929;43.546;-5.702;2022-08-19T06:32:14;102243.38;;;17.24;70.56
72063;BME280;59929;43.546;-5.702;2022-08-19T06:34:40;102236.84;;;17.30;70.24
72063;BME280;59929;43.546;-5.702;2022-08-19T06:37:06;102243.53;;;17.34;70.33
72063;BME280;59929;43.546;-5.702;2022-08-19T06:39:36;102243.53;;;17.34;70.38
72063;BME280;59929;43.546;-5.702;2022-08-19T06:42:05;102242.50;;;17.40;69.88
72063;BME280;59929;43.546;-5.702;2022-08-19T06:44:35;102239.88;;;17.28;70.40
72063;BME280;59929;43.546;-5.702;2022-08-19T06:47:03;102233.63;;;17.33;70.45
72063;BME280;59929;43.546;-5.702;2022-08-19T06:49:30;102246.00;;;17.35;70.42
72063;BME280;59929;43.546;-5.702;2022-08-19T06:51:57;102245.03;;;17.41;70.24
72063;BME280;59929;43.546;-5.702;2022-08-19T06:54:24;102244.50;;;17.44;69.91
72063;BME280;59929;43.546;-5.702;2022-08-19T06:56:49;102243.53;;;17.50;69.83
72063;BME280;59929;43.546;-5.702;2022-08-19T06:59:18;102233.03;;;17.64;69.51
72063;BME280;59929;43.546;-5.702;2022-08-19T07:01:48;102236.34;;;17.66;69.64
72063;BME280;59929;43.546;-5.702;2022-08-19T07:04:18;102226.94;;;17.62;69.53
72063;BME280;59929;43.546;-5.702;2022-08-19T07:06:45;102224.84;;;17.69;69.26
72063;BME280;59929;43.546;-5.702;2022-08-19T07:09:15;102230.34;;;17.69;68.90
72063;BME280;59929;43.546;-5.702;2022-08-19T07:11:49;102234.63;;;17.81;68.79
72063;BME280;59929;43.546;-5.702;2022-08-19T07:14:17;102234.72;;;17.86;68.63
72063;BME280;59929;43.546;-5.702;2022-08-19T07:16:44;102228.78;;;17.95;69.08
72063;BME280;59929;43.546;-5.702;2022-08-19T07:19:11;102229.22;;;18.08;68.63
72063;BME280;59929;43.546;-5.702;2022-08-19T07:21:37;102230.88;;;18.09;68.31
72063;BME280;59929;43.546;-5.702;2022-08-19T07:24:05;102234.84;;;18.18;68.12
72063;BME280;59929;43.546;-5.702;2022-08-19T07:26:33;102238.81;;;18.27;67.81
72063;BME280;59929;43.546;-5.702;2022-08-19T07:29:05;102232.25;;;18.33;67.48
72063;BME280;59929;43.546;-5.702;2022-08-19T07:31:31;102238.75;;;18.44;66.89
72063;BME280;59929;43.546;-5.702;2022-08-19T07:34:03;102235.84;;;18.55;66.83
72063;BME280;59929;43.546;-5.702;2022-08-19T07:36:33;102240.56;;;18.60;67.19
72063;BME280;59929;43.546;-5.702;2022-08-19T07:39:00;102230.31;;;18.82;67.74
72063;BME280;59929;43.546;-5.702;2022-08-19T07:41:29;102223.53;;;18.90;65.71
72063;BME280;59929;43.546;-5.702;2022-08-19T07:43:55;102234.72;;;19.10;65.65
72063;BME280;59929;43.546;-5.702;2022-08-19T07:46:21;102235.56;;;19.15;65.54
72063;BME280;59929;43.546;-5.702;2022-08-19T07:48:48;102232.31;;;19.23;65.17
72063;BME280;59929;43.546;-5.702;2022-08-19T07:51:19;102240.31;;;19.20;65.20
72063;BME280;59929;43.546;-5.702;2022-08-19T07:53:46;102244.63;;;19.11;65.52
72063;BME280;59929;43.546;-5.702;2022-08-19T07:56:13;102239.75;;;19.18;65.56
72063;BME280;59929;43.546;-5.702;2022-08-19T07:58:42;102241.47;;;19.29;65.90
72063;BME280;59929;43.546;-5.702;2022-08-19T08:01:12;102244.78;;;19.31;65.51
72063;BME280;59929;43.546;-5.702;2022-08-19T08:03:38;102236.31;;;19.37;65.06
72063;BME280;59929;43.546;-5.702;2022-08-19T08:06:21;102236.22;;;19.64;65.44
72063;BME280;59929;43.546;-5.702;2022-08-19T08:09:03;102238.47;;;19.67;64.39
72063;BME280;59929;43.546;-5.702;2022-08-19T08:11:39;102240.94;;;19.69;64.18
72063;BME280;59929;43.546;-5.702;2022-08-19T08:14:06;102231.81;;;19.68;64.16
72063;BME280;59929;43.546;-5.702;2022-08-19T08:16:35;102223.13;;;19.86;64.13
72063;BME280;59929;43.546;-5.702;2022-08-19T08:19:04;102230.66;;;20.06;62.57
72063;BME280;59929;43.546;-5.702;2022-08-19T08:21:32;102227.38;;;20.14;62.32
72063;BME280;59929;43.546;-5.702;2022-08-19T08:23:58;102227.16;;;20.20;62.19
72063;BME280;59929;43.546;-5.702;2022-08-19T08:26:23;102233.28;;;20.38;62.71
72063;BME280;59929;43.546;-5.702;2022-08-19T08:28:51;102236.63;;;20.40;61.63
72063;BME280;59929;43.546;-5.702;2022-08-19T08:31:17;102230.56;;;20.53;62.08
72063;BME280;59929;43.546;-5.702;2022-08-19T08:33:45;102231.13;;;20.60;62.18
72063;BME280;59929;43.546;-5.702;2022-08-19T08:36:12;102232.81;;;20.71;61.71
72063;BME280;59929;43.546;-5.702;2022-08-19T08:38:40;102231.72;;;20.77;60.90
72063;BME280;59929;43.546;-5.702;2022-08-19T08:41:28;102231.72;;;20.92;60.53
72063;BME280;59929;43.546;-5.702;2022-08-19T08:43:56;102234.50;;;21.02;60.34
72063;BME280;59929;43.546;-5.702;2022-08-19T08:49:26;102217.94;;;21.22;59.48
72063;BME280;59929;43.546;-5.702;2022-08-19T08:52:04;102221.22;;;21.39;58.59
72063;BME280;59929;43.546;-5.702;2022-08-19T08:54:37;102230.63;;;21.53;58.32
72063;BME280;59929;43.546;-5.702;2022-08-19T08:57:09;102230.06;;;21.61;57.78
72063;BME280;59929;43.546;-5.702;2022-08-19T08:59:39;102224.75;;;21.80;57.63
72063;BME280;59929;43.546;-5.702;2022-08-19T09:02:07;102231.66;;;21.72;57.74
72063;BME280;59929;43.546;-5.702;2022-08-19T09:04:35;102230.56;;;21.73;57.38
72063;BME280;59929;43.546;-5.702;2022-08-19T09:07:26;102231.66;;;21.77;56.89
72063;BME280;59929;43.546;-5.702;2022-08-19T09:10:11;102231.41;;;21.84;57.15
72063;BME280;59929;43.546;-5.702;2022-08-19T09:12:54;102236.91;;;21.79;56.93
72063;BME280;59929;43.546;-5.702;2022-08-19T09:15:32;102225.28;;;21.92;57.43
72063;BME280;59929;43.546;-5.702;2022-08-19T09:18:01;102233.59;;;21.92;56.79
72063;BME280;59929;43.546;-5.702;2022-08-19T09:20:27;102231.91;;;21.81;57.09
72063;BME280;59929;43.546;-5.702;2022-08-19T09:22:53;102239.66;;;21.94;57.41
72063;BME280;59929;43.546;-5.702;2022-08-19T09:25:20;102234.44;;;21.93;57.51
72063;BME280;59929;43.546;-5.702;2022-08-19T09:27:49;102237.19;;;21.93;57.62
72063;BME280;59929;43.546;-5.702;2022-08-19T09:30:22;102229.44;;;21.90;57.33
72063;BME280;59929;43.546;-5.702;2022-08-19T09:32:49;102243.25;;;22.00;57.33
72063;BME280;59929;43.546;-5.702;2022-08-19T09:35:19;102224.69;;;22.00;56.77
72063;BME280;59929;43.546;-5.702;2022-08-19T09:37:46;102236.56;;;22.11;56.64
72063;BME280;59929;43.546;-5.702;2022-08-19T09:40:12;102236.25;;;22.17;56.23
72063;BME280;59929;43.546;-5.702;2022-08-19T09:42:38;102230.72;;;22.17;56.01
72063;BME280;59929;43.546;-5.702;2022-08-19T09:45:04;102224.91;;;22.14;56.03
72063;BME280;59929;43.546;-5.702;2022-08-19T09:47:30;102223.75;;;22.20;56.45
72063;BME280;59929;43.546;-5.702;2022-08-19T09:49:55;102227.91;;;22.22;56.24
72063;BME280;59929;43.546;-5.702;2022-08-19T09:52:21;102236.56;;;22.11;56.33
72063;BME280;59929;43.546;-5.702;2022-08-19T09:54:47;102223.84;;;22.05;56.75
72063;BME280;59929;43.546;-5.702;2022-08-19T09:57:12;102224.66;;;22.10;56.69
72063;BME280;59929;43.546;-5.702;2022-08-19T09:59:39;102221.06;;;22.05;56.46
72063;BME280;59929;43.546;-5.702;2022-08-19T10:02:05;102227.13;;;22.17;56.44
72063;BME280;59929;43.546;-5.702;2022-08-19T10:04:31;102221.03;;;22.15;56.13
72063;BME280;59929;43.546;-5.702;2022-08-19T10:07:14;102227.72;;;22.04;56.90
72063;BME280;59929;43.546;-5.702;2022-08-19T10:09:40;102225.47;;;22.11;57.00
72063;BME280;59929;43.546;-5.702;2022-08-19T10:12:07;102227.41;;;22.15;57.21
72063;BME280;59929;43.546;-5.702;2022-08-19T10:14:33;102222.41;;;22.12;57.11
72063;BME280;59929;43.546;-5.702;2022-08-19T10:16:59;102218.81;;;22.17;57.89
72063;BME280;59929;43.546;-5.702;2022-08-19T10:19:26;102226.22;;;22.31;57.74
72063;BME280;59929;43.546;-5.702;2022-08-19T10:21:55;102225.38;;;22.31;57.92
72063;BME280;59929;43.546;-5.702;2022-08-19T10:24:21;102220.94;;;22.30;57.88
72063;BME280;59929;43.546;-5.702;2022-08-19T10:26:49;102225.13;;;22.27;58.59
72063;BME280;59929;43.546;-5.702;2022-08-19T10:29:15;102229.75;;;22.42;58.50
72063;BME280;59929;43.546;-5.702;2022-08-19T10:31:41;102230.72;;;22.17;58.90
72063;BME280;59929;43.546;-5.702;2022-08-19T10:34:07;102229.94;;;22.07;59.61
72063;BME280;59929;43.546;-5.702;2022-08-19T10:36:35;102228.81;;;22.08;60.12
72063;BME280;59929;43.546;-5.702;2022-08-19T10:39:05;102227.63;;;22.24;60.11
72063;BME280;59929;43.546;-5.702;2022-08-19T10:41:33;102230.66;;;22.27;59.92
72063;BME280;59929;43.546;-5.702;2022-08-19T10:44:04;102229.84;;;22.27;60.05
72063;BME280;59929;43.546;-5.702;2022-08-19T10:46:32;102222.38;;;22.22;60.07
72063;BME280;59929;43.546;-5.702;2022-08-19T10:49:00;102226.03;;;22.08;60.68
72063;BME280;59929;43.546;-5.702;2022-08-19T10:51:27;102232.97;;;22.05;60.82
72063;BME280;59929;43.546;-5.702;2022-08-19T10:54:06;102231.09;;;21.91;61.74
72063;BME280;59929;43.546;-5.702;2022-08-19T10:56:32;102231.63;;;21.98;61.53
72063;BME280;59929;43.546;-5.702;2022-08-19T10:59:09;102230.97;;;22.16;61.43
72063;BME280;59929;43.546;-5.702;2022-08-19T11:01:35;102227.41;;;22.15;60.75
72063;BME280;59929;43.546;-5.702;2022-08-19T11:04:03;102218.22;;;22.20;61.42
72063;BME280;59929;43.546;-5.702;2022-08-19T11:06:31;102220.97;;;22.25;61.29
72063;BME280;59929;43.546;-5.702;2022-08-19T11:08:58;102222.31;;;22.37;61.40
72063;BME280;59929;43.546;-5.702;2022-08-19T11:11:25;102219.53;;;22.37;61.77
72063;BME280;59929;43.546;-5.702;2022-08-19T11:13:51;102215.78;;;22.57;61.31
72063;BME280;59929;43.546;-5.702;2022-08-19T11:16:21;102216.81;;;22.76;60.44
72063;BME280;59929;43.546;-5.702;2022-08-19T11:18:51;102214.41;;;22.98;60.39
72063;BME280;59929;43.546;-5.702;2022-08-19T11:21:20;102214.19;;;22.90;60.23
72063;BME280;59929;43.546;-5.702;2022-08-19T11:23:49;102211.19;;;22.86;60.34
72063;BME280;59929;43.546;-5.702;2022-08-19T11:26:16;102209.31;;;22.77;60.68
72063;BME280;59929;43.546;-5.702;2022-08-19T11:28:42;102199.59;;;22.79;60.91
72063;BME280;59929;43.546;-5.702;2022-08-19T11:31:11;102210.63;;;22.89;61.01
72063;BME280;59929;43.546;-5.702;2022-08-19T11:33:37;102208.84;;;22.98;60.70
72063;BME280;59929;43.546;-5.702;2022-08-19T11:36:03;102206.28;;;23.07;60.48
72063;BME280;59929;43.546;-5.702;2022-08-19T11:38:28;102197.63;;;23.13;59.85
72063;BME280;59929;43.546;-5.702;2022-08-19T11:40:58;102201.03;;;23.05;58.95
72063;BME280;59929;43.546;-5.702;2022-08-19T11:43:25;102200.41;;;23.13;58.46
72063;BME280;59929;43.546;-5.702;2022-08-19T11:45:53;102200.97;;;23.10;58.30
72063;BME280;59929;43.546;-5.702;2022-08-19T11:48:19;102203.19;;;23.13;58.43
72063;BME280;59929;43.546;-5.702;2022-08-19T11:50:48;102197.09;;;23.11;58.49
72063;BME280;59929;43.546;-5.702;2022-08-19T11:53:15;102200.91;;;23.20;58.85
72063;BME280;59929;43.546;-5.702;2022-08-19T11:55:40;102205.66;;;23.15;58.53
72063;BME280;59929;43.546;-5.702;2022-08-19T11:58:07;102209.47;;;23.24;56.66
72063;BME280;59929;43.546;-5.702;2022-08-19T12:00:34;102208.75;;;23.42;56.16
72063;BME280;59929;43.546;-5.702;2022-08-19T12:03:02;102203.97;;;23.48;56.07
72063;BME280;59929;43.546;-5.702;2022-08-19T12:05:28;102196.63;;;23.62;56.55
72063;BME280;59929;43.546;-5.702;2022-08-19T12:07:53;102197.84;;;23.74;55.43
72063;BME280;59929;43.546;-5.702;2022-08-19T12:10:20;102193.56;;;23.63;54.84
72063;BME280;59929;43.546;-5.702;2022-08-19T12:12:46;102199.75;;;23.79;55.39
72063;BME280;59929;43.546;-5.702;2022-08-19T12:15:13;102193.59;;;23.58;55.81
72063;BME280;59929;43.546;-5.702;2022-08-19T12:17:40;102193.66;;;23.53;56.18
72063;BME280;59929;43.546;-5.702;2022-08-19T12:20:09;102191.13;;;23.57;56.13
72063;BME280;59929;43.546;-5.702;2022-08-19T12:22:37;102196.06;;;23.60;55.77
72063;BME280;59929;43.546;-5.702;2022-08-19T12:25:05;102190.88;;;23.77;56.39
72063;BME280;59929;43.546;-5.702;2022-08-19T12:27:31;102191.63;;;23.82;55.89
72063;BME280;59929;43.546;-5.702;2022-08-19T12:29:56;102195.97;;;23.93;55.70
72063;BME280;59929;43.546;-5.702;2022-08-19T12:32:23;102188.59;;;23.84;55.98
72063;BME280;59929;43.546;-5.702;2022-08-19T12:34:50;102196.56;;;23.67;56.48
72063;BME280;59929;43.546;-5.702;2022-08-19T12:37:16;102190.69;;;23.92;55.84
72063;BME280;59929;43.546;-5.702;2022-08-19T12:39:42;102192.28;;;23.98;55.53
72063;BME280;59929;43.546;-5.702;2022-08-19T12:42:10;102183.50;;;24.14;54.97
72063;BME280;59929;43.546;-5.702;2022-08-19T12:44:38;102182.66;;;24.14;54.54
72063;BME280;59929;43.546;-5.702;2022-08-19T12:47:05;102184.06;;;24.11;55.43